STAZIONE METEO DI BARCELLONA P.G. CENTRO
Dati campionati ogni minuto da Consolle Davis Vantage Pro 2
ed inviati alla rete mediante server Anemos WDS5 wview



Barcellona P.G. Centro more information Barcellona P.G. Centro


Golfo di Patti more information Golfo di Patti


Thunder radar more information blitzortung!


Rain radar  rain snow radar


altri nostri siti meteo:

Rischio IncendiRischio Incendi

Rete NOAA MADIS

Italia Meteo Network

PomeziameteoSito web di stazione meteo amica



Non è richiesta alcuna attenzione speciale.    Non sono presenti avvisi meteorologici di particolare rilevanza

Report METAR

   
LICF - Messina, Italy
Distanza dalla stazione: NE 30 km
Dati ricevuti: 19-08-2019 02:55
Sereno  
Sereno  
   Vento: calma
Vento: calma
Temperatura: 25°C
P.to Rugiada: 22°C
Umidità: 83%
Barometro: 1015 hPa
Visibilità: oltre 10 km
dettagli cloud: Sereno
LICF 190055Z 00000KT CAVOK 25/22 Q1015 RMK SKC QUK / QUL / VIS MAR 20 KM MON INVIS NC VIS MIN 9999
LICR - Reggio Calabria, Italy
Distanza dalla stazione: SE 39 km
Dati ricevuti: 18-08-2019 23:50
DATI Obsoleti
Sereno  
Sereno  
   Vento: NE 5.6 km/h
Vento: NE 5.6 km/h
Temperatura: 24°C
P.to Rugiada: 18°C
Umidità: 69%
Barometro: 1016 hPa
Visibilità: oltre 10 km
dettagli cloud: Sereno
LICR 182150Z 05003KT CAVOK 24/18 Q1016
LICC - Catania/Fontanar, Italy
Distanza dalla stazione: S 77 km
Dati ricevuti: 19-08-2019 03:50
Sereno  
Sereno  
   Vento: W 11.1 km/h
Vento: W 11.1 km/h
Temperatura: 23°C
P.to Rugiada: 21°C
Umidità: 89%
Barometro: 1015 hPa
Visibilità: oltre 10 km
dettagli cloud: Sereno
LICC 190150Z 25006KT CAVOK 23/21 Q1015
LICZ - Sigonella (nas), Italy
Distanza dalla stazione: S 89 km
Dati ricevuti: 19-08-2019 02:55
Sereno  
Sereno  
   Vento: W 11.1 km/h
Vento: W 11.1 km/h
Temperatura: 23°C
P.to Rugiada: 23°C
Umidità: 100%
Barometro: 1016 hPa
Visibilità: oltre 10 km
dettagli cloud: Sereno
LICZ 190055Z 29006KT CAVOK 23/23 Q1016 RMK SKC VIS MIN 9999 WIND THR28 27005KT WIND THR10 26005KT A3001 BLU
LICA - Lamezia Terme, Italy
Distanza dalla stazione: NE 122 km
Dati ricevuti: 19-08-2019 03:50
Sereno  
Sereno  
   Vento: NE 11.1 km/h
Vento: NE 11.1 km/h
Temperatura: 19°C
P.to Rugiada: 17°C
Umidità: 88%
Barometro: 1016 hPa
Visibilità: oltre 10 km
dettagli cloud: Sereno
LICA 190150Z 07006KT CAVOK 19/17 Q1016
LICB - Comiso, Italy
Distanza dalla stazione: S 138 km
Dati ricevuti: 19-08-2019 03:50
Sereno  
Sereno  
   Vento: NE 5.6 km/h
Vento: NE 5.6 km/h
Temperatura: 20°C
P.to Rugiada: 17°C
Umidità: 83%
Barometro: 1017 hPa
Nuvole: Sereno
Visibilità: oltre 10 km
dettagli cloud: Sereno
LICB 190150Z AUTO 07003KT 9999 NCD 20/17 Q1017

Script sviluppato da  Saratoga-weather.org Adattato per il modello da  Weerstation Leuven

Potete trovare le nostre info meteo anche a:

European Weather Network

Weather Underground

AWEKAS

Citizen Weather Observer Program (CWOP)

HAMweather, WeatherForYou, PWS Weather

Attrezzature usate:

Stazione meteo
Davis VP2

Programma gestore dati meteo
WVIEW

Server per i dati meteo
WDS5 Ecoblack

Davis VP2

WVIEW

WDS5 Ecoblack